createdAt,value
2023-04-10T00:00:38.099Z,114.47
2023-04-10T00:03:06.000Z,117.40
2023-04-10T00:05:33.298Z,117.00
2023-04-10T00:08:01.788Z,116.67
2023-04-10T00:10:31.734Z,117.40
2023-04-10T00:13:00.745Z,117.40
2023-04-10T00:15:28.715Z,117.53
2023-04-10T00:17:55.908Z,116.37
2023-04-10T00:20:26.091Z,117.40
2023-04-10T00:22:53.212Z,116.90
2023-04-10T00:25:22.872Z,116.93
2023-04-10T00:27:50.544Z,116.87
2023-04-10T00:30:18.063Z,117.23
2023-04-10T00:32:45.654Z,116.77
2023-04-10T00:35:13.099Z,116.60
2023-04-10T00:37:41.395Z,117.37
2023-04-10T00:40:09.412Z,116.77
2023-04-10T00:42:37.218Z,116.27
2023-04-10T00:45:04.974Z,116.60
2023-04-10T00:47:32.612Z,116.90
2023-04-10T00:50:00.264Z,116.53
2023-04-10T00:52:27.842Z,116.50
2023-04-10T00:54:55.535Z,116.67
2023-04-10T00:57:23.082Z,116.50
2023-04-10T00:59:53.010Z,116.50
2023-04-10T01:02:21.453Z,116.87
2023-04-10T01:04:49.292Z,116.97
2023-04-10T01:07:44.191Z,114.33
2023-04-10T01:10:36.924Z,116.00
2023-04-10T01:13:28.150Z,115.30
2023-04-10T01:16:51.521Z,116.43
2023-04-10T01:20:00.148Z,115.67
2023-04-10T01:23:00.744Z,115.70
2023-04-10T01:25:56.440Z,116.10
2023-04-10T01:29:00.316Z,116.40
2023-04-10T01:31:38.955Z,116.37
2023-04-10T01:34:18.536Z,116.63
2023-04-10T01:37:05.336Z,116.40
2023-04-10T01:39:40.010Z,115.87
2023-04-10T01:42:11.919Z,116.50
2023-04-10T01:44:44.435Z,116.00
2023-04-10T01:47:17.879Z,115.90
2023-04-10T01:49:47.730Z,116.37
2023-04-10T01:52:17.275Z,116.67
2023-04-10T01:54:50.415Z,116.57
2023-04-10T01:57:24.839Z,116.10
2023-04-10T01:59:58.591Z,115.40
2023-04-10T02:02:30.991Z,116.30
2023-04-10T02:04:58.243Z,116.33
2023-04-10T02:07:46.817Z,116.77
2023-04-10T02:10:45.263Z,116.27
2023-04-10T02:13:16.148Z,116.00
2023-04-10T02:15:47.200Z,115.07
2023-04-10T02:18:17.896Z,115.60
2023-04-10T02:20:46.176Z,115.90
2023-04-10T02:23:16.860Z,116.20
2023-04-10T02:25:44.312Z,116.00
2023-04-10T02:28:11.791Z,116.30
2023-04-10T02:30:39.314Z,116.30
2023-04-10T02:33:06.424Z,115.80
2023-04-10T02:35:35.061Z,115.97
2023-04-10T02:38:04.205Z,114.90
2023-04-10T02:40:36.973Z,116.17
2023-04-10T02:43:13.000Z,115.60
2023-04-10T02:45:41.695Z,115.93
2023-04-10T02:48:11.085Z,115.43
2023-04-10T02:50:38.872Z,114.63
2023-04-10T02:53:06.482Z,115.90
2023-04-10T02:55:33.985Z,115.73
2023-04-10T02:58:01.209Z,116.07
2023-04-10T03:00:28.939Z,114.40
2023-04-10T03:03:09.441Z,115.60
2023-04-10T03:05:46.748Z,115.63
2023-04-10T03:08:19.254Z,115.63
2023-04-10T03:10:50.975Z,116.17
2023-04-10T03:13:18.526Z,115.63
2023-04-10T03:15:45.615Z,115.60
2023-04-10T03:18:13.211Z,116.00
2023-04-10T03:20:44.927Z,115.67
2023-04-10T03:23:12.286Z,115.50
2023-04-10T03:25:39.720Z,115.50
2023-04-10T03:28:08.509Z,115.83
2023-04-10T03:30:36.994Z,116.17
2023-04-10T03:33:04.713Z,115.77
2023-04-10T03:35:32.003Z,115.07
2023-04-10T03:38:00.240Z,115.97
2023-04-10T03:40:27.395Z,115.27
2023-04-10T03:42:55.042Z,115.37
2023-04-10T03:45:22.161Z,114.77
2023-04-10T03:47:49.732Z,115.60
2023-04-10T03:50:17.342Z,114.50
2023-04-10T03:52:52.574Z,115.87
2023-04-10T03:55:22.482Z,115.23
2023-04-10T03:57:52.387Z,115.77
2023-04-10T04:00:24.913Z,115.63
2023-04-10T04:03:01.024Z,116.47
2023-04-10T04:05:46.512Z,116.07
2023-04-10T04:08:24.864Z,115.97
2023-04-10T04:11:11.801Z,115.00
2023-04-10T04:14:05.145Z,115.87
2023-04-10T04:16:51.195Z,115.47
2023-04-10T04:19:33.360Z,114.90
2023-04-10T04:22:24.264Z,115.57
2023-04-10T04:25:10.964Z,114.63
2023-04-10T04:27:55.913Z,114.90
2023-04-10T04:30:43.271Z,115.10
2023-04-10T04:33:18.976Z,115.27
2023-04-10T04:36:04.892Z,115.87
2023-04-10T04:38:48.691Z,115.40
2023-04-10T04:41:32.237Z,114.70
2023-04-10T04:44:25.595Z,115.77
2023-04-10T04:47:17.621Z,115.40
2023-04-10T04:49:59.543Z,115.67
2023-04-10T04:52:57.452Z,115.20
2023-04-10T04:55:41.776Z,115.40
2023-04-10T04:58:21.092Z,115.47
2023-04-10T05:01:08.688Z,115.30
2023-04-10T05:03:55.267Z,114.87
2023-04-10T05:07:00.884Z,115.83
2023-04-10T05:09:39.637Z,116.10
2023-04-10T05:12:16.443Z,116.17
2023-04-10T05:14:53.203Z,115.97
2023-04-10T05:17:29.652Z,113.50
2023-04-10T05:20:10.380Z,116.10
2023-04-10T05:23:17.389Z,116.37
2023-04-10T05:25:55.520Z,116.00
2023-04-10T05:28:42.261Z,115.70
2023-04-10T05:31:29.068Z,115.80
2023-04-10T05:34:08.053Z,115.80
2023-04-10T05:37:12.803Z,115.77
2023-04-10T05:39:50.462Z,116.00
2023-04-10T05:42:40.595Z,115.50
2023-04-10T05:45:21.648Z,116.07
2023-04-10T05:48:07.721Z,115.40
2023-04-10T05:50:41.417Z,116.07
2023-04-10T05:53:32.100Z,115.93
2023-04-10T05:56:17.864Z,115.63
2023-04-10T05:59:12.287Z,116.17
2023-04-10T06:01:58.289Z,115.50
2023-04-10T06:04:26.290Z,115.80
2023-04-10T06:06:57.130Z,116.30
2023-04-10T06:09:25.635Z,116.17
2023-04-10T06:11:57.578Z,116.30
2023-04-10T06:14:26.374Z,116.10
2023-04-10T06:16:53.462Z,116.00
2023-04-10T06:19:20.980Z,116.50
2023-04-10T06:21:48.376Z,116.47
2023-04-10T06:24:16.550Z,116.37
2023-04-10T06:26:47.718Z,116.40
2023-04-10T06:29:15.326Z,116.60
2023-04-10T06:31:42.800Z,116.40
2023-04-10T06:34:10.309Z,115.47
2023-04-10T06:36:38.988Z,116.77
2023-04-10T06:39:07.042Z,115.47
2023-04-10T06:41:36.201Z,116.40
2023-04-10T06:44:16.138Z,116.60
2023-04-10T06:46:43.380Z,116.50
2023-04-10T06:49:11.455Z,116.67
2023-04-10T06:51:39.005Z,116.60
2023-04-10T06:54:06.098Z,116.73
2023-04-10T06:56:33.665Z,116.90
2023-04-10T06:59:00.724Z,115.97
2023-04-10T07:01:28.583Z,117.40
2023-04-10T07:03:56.545Z,117.30
2023-04-10T07:06:28.758Z,116.70
2023-04-10T07:08:56.605Z,116.60
2023-04-10T07:11:24.086Z,116.10
2023-04-10T07:13:53.964Z,116.80
2023-04-10T07:16:22.173Z,117.37
2023-04-10T07:18:49.648Z,115.70
2023-04-10T07:21:17.096Z,116.47
2023-04-10T07:23:44.131Z,117.30
2023-04-10T07:26:11.603Z,117.30
2023-04-10T07:28:39.078Z,117.17
2023-04-10T07:31:08.279Z,117.70
2023-04-10T07:33:36.389Z,117.20
2023-04-10T07:36:05.914Z,117.13
2023-04-10T07:38:33.577Z,117.10
2023-04-10T07:41:01.089Z,117.17
2023-04-10T07:43:28.162Z,116.80
2023-04-10T07:45:57.012Z,116.70
2023-04-10T07:48:24.713Z,116.40
2023-04-10T07:50:53.548Z,116.73
2023-04-10T07:53:21.209Z,116.60
2023-04-10T07:55:50.740Z,117.00
2023-04-10T07:58:17.804Z,117.30
2023-04-10T08:03:46.423Z,117.57
2023-04-10T08:06:14.188Z,116.97
2023-04-10T08:08:42.620Z,117.33
2023-04-10T08:11:44.247Z,117.40
2023-04-10T08:14:11.357Z,117.30
2023-04-10T08:16:39.363Z,117.47
2023-04-10T08:19:06.499Z,116.80
2023-04-10T08:21:33.513Z,117.03
2023-04-10T08:24:03.667Z,117.03
2023-04-10T08:26:30.928Z,117.10
2023-04-10T08:29:00.686Z,116.60
2023-04-10T08:31:29.699Z,116.50
2023-04-10T08:33:57.588Z,116.17
2023-04-10T08:36:26.983Z,116.80
2023-04-10T08:38:54.083Z,116.30
2023-04-10T08:41:22.236Z,116.10
2023-04-10T08:43:50.880Z,116.10
2023-04-10T08:46:17.983Z,116.17
2023-04-10T08:49:01.759Z,116.37
2023-04-10T08:51:56.110Z,115.97
2023-04-10T08:54:28.192Z,115.60
2023-04-10T08:56:58.398Z,116.00
2023-04-10T08:59:25.961Z,116.37
2023-04-10T09:01:53.887Z,115.80
2023-04-10T09:04:22.109Z,115.77
2023-04-10T09:06:49.698Z,115.40
2023-04-10T09:09:17.535Z,116.07
2023-04-10T09:11:56.616Z,116.23
2023-04-10T09:14:28.316Z,115.63
2023-04-10T09:17:13.486Z,115.90
2023-04-10T09:19:41.082Z,115.50
2023-04-10T09:22:09.771Z,115.30
2023-04-10T09:24:43.719Z,116.37
2023-04-10T09:27:11.413Z,116.13
2023-04-10T09:29:51.547Z,115.27
2023-04-10T09:32:57.441Z,116.13
2023-04-10T09:35:37.224Z,115.57
2023-04-10T09:38:20.613Z,115.60
2023-04-10T09:40:49.609Z,115.63
2023-04-10T09:43:27.248Z,116.00
2023-04-10T09:45:59.589Z,115.20
2023-04-10T09:48:27.868Z,115.47
2023-04-10T09:50:58.022Z,115.50
2023-04-10T09:53:25.857Z,116.10
2023-04-10T09:55:52.873Z,116.27
2023-04-10T09:58:22.310Z,115.60
2023-04-10T10:00:50.436Z,115.53
2023-04-10T10:03:22.640Z,116.20
2023-04-10T10:05:51.730Z,115.53
2023-04-10T10:08:19.950Z,115.90
2023-04-10T10:10:54.927Z,115.97
2023-04-10T10:13:44.503Z,115.37
2023-04-10T10:16:34.523Z,115.20
2023-04-10T10:19:31.616Z,115.27
2023-04-10T10:22:01.852Z,115.97
2023-04-10T10:24:32.019Z,115.53
2023-04-10T10:27:02.451Z,115.20
2023-04-10T10:29:32.853Z,115.57
2023-04-10T10:32:03.985Z,115.40
2023-04-10T10:34:31.849Z,115.20
2023-04-10T10:36:59.911Z,115.77
2023-04-10T10:40:09.398Z,115.30
2023-04-10T10:42:56.219Z,115.73
2023-04-10T10:45:40.367Z,115.50
2023-04-10T10:48:08.325Z,114.80
2023-04-10T10:50:52.521Z,115.47
2023-04-10T10:53:45.000Z,114.70
2023-04-10T10:56:26.549Z,114.50
2023-04-10T10:58:59.647Z,114.70
2023-04-10T11:01:27.429Z,113.83
2023-04-10T11:03:55.111Z,114.47
2023-04-10T11:06:53.350Z,114.17
2023-04-10T11:09:52.581Z,114.40
2023-04-10T11:12:24.328Z,114.00
2023-04-10T11:15:02.954Z,114.77
2023-04-10T11:17:54.164Z,114.27
2023-04-10T11:20:25.656Z,113.93
2023-04-10T11:23:13.084Z,114.43
2023-04-10T11:25:55.652Z,114.60
2023-04-10T11:28:37.513Z,115.57
2023-04-10T11:31:23.058Z,114.83
2023-04-10T11:33:58.584Z,115.87
2023-04-10T11:36:27.459Z,115.40
2023-04-10T11:38:56.437Z,115.63
2023-04-10T11:41:36.596Z,115.87
2023-04-10T11:44:13.724Z,115.10
2023-04-10T11:46:46.648Z,115.50
2023-04-10T11:49:25.988Z,115.97
2023-04-10T11:51:57.043Z,115.23
2023-04-10T11:54:31.895Z,115.67
2023-04-10T11:57:09.931Z,115.20
2023-04-10T11:59:37.058Z,116.07
2023-04-10T12:02:14.655Z,115.33
2023-04-10T12:04:47.317Z,115.57
2023-04-10T12:07:15.326Z,115.47
2023-04-10T12:09:42.755Z,115.57
2023-04-10T12:12:09.816Z,115.10
2023-04-10T12:14:42.050Z,114.90
2023-04-10T12:17:11.865Z,115.30
2023-04-10T12:19:40.199Z,115.27
2023-04-10T12:22:07.901Z,114.97
2023-04-10T12:24:54.079Z,115.07
2023-04-10T12:27:27.686Z,114.77
2023-04-10T12:29:57.745Z,114.77
2023-04-10T12:32:27.472Z,114.67
2023-04-10T12:35:01.177Z,114.27
2023-04-10T12:37:52.212Z,114.57
2023-04-10T12:40:22.796Z,114.37
2023-04-10T12:42:50.305Z,114.00
2023-04-10T12:45:17.710Z,114.87
2023-04-10T12:47:53.637Z,114.70
2023-04-10T12:50:21.322Z,115.07
2023-04-10T12:53:07.519Z,114.57
2023-04-10T12:55:35.153Z,114.93
2023-04-10T12:58:18.314Z,115.07
2023-04-10T13:00:46.666Z,115.00
2023-04-10T13:03:14.306Z,114.80
2023-04-10T13:05:41.894Z,114.67
2023-04-10T13:08:08.931Z,114.70
2023-04-10T13:10:38.171Z,114.53
2023-04-10T13:13:06.939Z,114.97
2023-04-10T13:15:34.835Z,115.37
2023-04-10T13:18:05.241Z,114.60
2023-04-10T13:20:40.869Z,115.27
2023-04-10T13:23:08.837Z,114.97
2023-04-10T13:25:39.997Z,115.00
2023-04-10T13:28:11.313Z,114.70
2023-04-10T13:30:41.591Z,115.40
2023-04-10T13:33:10.233Z,115.17
2023-04-10T13:35:39.975Z,115.67
2023-04-10T13:38:09.083Z,114.90
2023-04-10T13:40:36.623Z,115.50
2023-04-10T13:43:06.179Z,115.47
2023-04-10T13:45:34.715Z,115.30
2023-04-10T13:48:02.217Z,115.27
2023-04-10T13:50:29.327Z,115.37
2023-04-10T13:52:56.868Z,115.67
2023-04-10T13:55:24.390Z,115.87
2023-04-10T13:57:52.064Z,115.53
2023-04-10T14:00:19.641Z,115.17
2023-04-10T14:02:46.777Z,115.30
2023-04-10T14:05:14.401Z,115.37
2023-04-10T14:07:41.984Z,114.90
2023-04-10T14:10:10.490Z,115.27
2023-04-10T14:12:38.027Z,115.17
2023-04-10T14:15:06.575Z,114.90
2023-04-10T14:17:34.729Z,115.27
2023-04-10T14:20:02.267Z,115.70
2023-04-10T14:22:31.540Z,115.50
2023-04-10T14:25:11.730Z,115.67
2023-04-10T14:27:39.910Z,115.10
2023-04-10T14:30:08.580Z,114.90
2023-04-10T14:32:36.116Z,115.43
2023-04-10T14:35:04.552Z,115.37
2023-04-10T14:37:32.351Z,115.50
2023-04-10T14:39:59.792Z,115.47
2023-04-10T14:42:27.337Z,115.57
2023-04-10T14:44:54.821Z,115.37
2023-04-10T14:47:23.667Z,115.60
2023-04-10T14:49:50.807Z,115.60
2023-04-10T14:52:18.633Z,115.77
2023-04-10T14:54:46.098Z,115.70
2023-04-10T14:57:14.956Z,115.50
2023-04-10T14:59:42.740Z,115.87
2023-04-10T15:02:10.257Z,115.30
2023-04-10T15:04:37.821Z,115.47
2023-04-10T15:07:05.531Z,115.60
2023-04-10T15:09:33.282Z,115.60
2023-04-10T15:12:01.685Z,115.87
2023-04-10T15:14:29.132Z,115.70
2023-04-10T15:16:56.589Z,115.60
2023-04-10T15:19:24.154Z,116.17
2023-04-10T15:21:51.694Z,115.80
2023-04-10T15:24:19.225Z,116.37
2023-04-10T15:26:47.089Z,116.07
2023-04-10T15:29:14.457Z,115.77
2023-04-10T15:31:42.550Z,115.53
2023-04-10T15:34:10.095Z,116.17
2023-04-10T15:36:37.570Z,116.30
2023-04-10T15:39:05.436Z,116.10
2023-04-10T15:41:33.020Z,115.90
2023-04-10T15:44:00.629Z,115.90
2023-04-10T15:46:32.246Z,116.17
2023-04-10T15:49:00.782Z,115.87
2023-04-10T15:51:28.282Z,116.20
2023-04-10T15:53:56.041Z,115.70
2023-04-10T15:56:23.655Z,116.47
2023-04-10T15:58:51.164Z,115.80
2023-04-10T16:01:18.570Z,116.57
2023-04-10T16:03:46.500Z,116.50
2023-04-10T16:06:14.122Z,116.90
2023-04-10T16:08:41.596Z,117.17
2023-04-10T16:11:09.058Z,116.70
2023-04-10T16:13:39.490Z,117.50
2023-04-10T16:16:15.363Z,118.07
2023-04-10T16:18:44.789Z,117.70
2023-04-10T16:21:16.984Z,118.07
2023-04-10T16:23:44.621Z,117.90
2023-04-10T16:26:12.139Z,117.90
2023-04-10T16:28:39.557Z,117.80
2023-04-10T16:31:07.302Z,117.50
2023-04-10T16:33:34.874Z,117.53
2023-04-10T16:36:04.962Z,117.60
2023-04-10T16:38:34.479Z,117.10
2023-04-10T16:41:06.177Z,117.90
2023-04-10T16:43:33.629Z,117.77
2023-04-10T16:46:01.368Z,116.67
2023-04-10T16:48:29.061Z,117.50
2023-04-10T16:50:58.709Z,118.17
2023-04-10T16:53:25.770Z,118.00
2023-04-10T16:56:01.959Z,117.83
2023-04-10T16:58:31.198Z,118.17
2023-04-10T17:00:58.709Z,117.77
2023-04-10T17:03:26.919Z,118.00
2023-04-10T17:05:54.467Z,117.47
2023-04-10T17:08:21.945Z,117.50
2023-04-10T17:10:49.363Z,117.77
2023-04-10T17:13:18.265Z,117.50
2023-04-10T17:15:47.316Z,117.37
2023-04-10T17:18:15.041Z,117.87
2023-04-10T17:20:42.613Z,117.90
2023-04-10T17:23:11.246Z,117.47
2023-04-10T17:25:44.942Z,117.90
2023-04-10T17:28:12.641Z,118.40
2023-04-10T17:30:41.206Z,117.90
2023-04-10T17:33:08.862Z,117.57
2023-04-10T17:35:36.294Z,117.80
2023-04-10T17:38:04.733Z,117.80
2023-04-10T17:40:32.601Z,117.90
2023-04-10T17:43:00.066Z,118.03
2023-04-10T17:45:27.515Z,118.37
2023-04-10T17:47:55.072Z,118.57
2023-04-10T17:50:22.555Z,117.87
2023-04-10T17:52:49.666Z,118.30
2023-04-10T17:55:20.428Z,117.47
2023-04-10T17:57:48.944Z,117.80
2023-04-10T18:00:20.035Z,118.37
2023-04-10T18:02:49.062Z,117.57
2023-04-10T18:05:16.378Z,118.30
2023-04-10T18:07:43.907Z,118.00
2023-04-10T18:10:11.712Z,117.70
2023-04-10T18:12:42.311Z,117.70
2023-04-10T18:15:10.378Z,117.17
2023-04-10T18:17:39.412Z,117.07
2023-04-10T18:20:08.357Z,117.80
2023-04-10T18:22:35.507Z,117.97
2023-04-10T18:25:03.047Z,118.10
2023-04-10T18:27:31.632Z,117.20
2023-04-10T18:29:59.158Z,118.37
2023-04-10T18:32:26.407Z,117.47
2023-04-10T18:34:54.067Z,117.47
2023-04-10T18:37:21.140Z,117.83
2023-04-10T18:39:48.731Z,117.47
2023-04-10T18:42:16.221Z,118.17
2023-04-10T18:44:43.725Z,117.07
2023-04-10T18:47:11.315Z,115.50
2023-04-10T18:49:38.993Z,118.27
2023-04-10T18:52:07.372Z,118.20
2023-04-10T18:54:35.368Z,117.30
2023-04-10T18:57:02.656Z,118.30
2023-04-10T18:59:30.410Z,118.17
2023-04-10T19:01:57.424Z,118.50
2023-04-10T19:04:25.211Z,117.70
2023-04-10T19:06:52.566Z,117.50
2023-04-10T19:09:19.803Z,117.43
2023-04-10T19:11:47.484Z,118.07
2023-04-10T19:14:16.584Z,118.10
2023-04-10T19:16:44.024Z,116.97
2023-04-10T19:19:11.516Z,116.37
2023-04-10T19:21:38.979Z,117.83
2023-04-10T19:24:06.615Z,117.50
2023-04-10T19:26:34.168Z,117.80
2023-04-10T19:29:01.679Z,117.90
2023-04-10T19:31:29.602Z,116.47
2023-04-10T19:33:57.809Z,117.53
2023-04-10T19:36:27.014Z,116.20
2023-04-10T19:38:57.157Z,116.70
2023-04-10T19:41:25.963Z,117.73
2023-04-10T19:43:54.031Z,116.37
2023-04-10T19:46:22.173Z,116.87
2023-04-10T19:48:49.906Z,117.50
2023-04-10T19:51:17.567Z,117.97
2023-04-10T19:53:45.269Z,117.10
2023-04-10T19:56:12.785Z,116.47
2023-04-10T19:58:41.588Z,116.90
2023-04-10T20:01:13.033Z,116.10
2023-04-10T20:03:40.391Z,117.50
2023-04-10T20:06:08.417Z,118.23
2023-04-10T20:08:36.282Z,117.20
2023-04-10T20:11:06.019Z,115.83
2023-04-10T20:13:34.493Z,117.43
2023-04-10T20:16:02.995Z,116.90
2023-04-10T20:18:32.111Z,116.47
2023-04-10T20:20:59.317Z,117.57
2023-04-10T20:23:26.841Z,117.03
2023-04-10T20:25:53.961Z,117.30
2023-04-10T20:28:21.545Z,115.90
2023-04-10T20:30:48.607Z,117.77
2023-04-10T20:33:16.109Z,116.97
2023-04-10T20:35:43.557Z,117.10
2023-04-10T20:38:11.801Z,116.47
2023-04-10T20:40:41.569Z,116.67
2023-04-10T20:43:12.014Z,117.40
2023-04-10T20:45:40.404Z,115.53
2023-04-10T20:48:09.133Z,117.80
2023-04-10T20:50:39.764Z,117.97
2023-04-10T20:53:07.303Z,117.50
2023-04-10T20:55:38.757Z,117.73
2023-04-10T20:58:06.834Z,118.20
2023-04-10T21:00:35.155Z,117.67
2023-04-10T21:03:05.522Z,117.60
2023-04-10T21:05:33.250Z,116.47
2023-04-10T21:08:01.127Z,118.07
2023-04-10T21:10:28.769Z,117.47
2023-04-10T21:12:56.169Z,117.80
2023-04-10T21:15:23.656Z,115.90
2023-04-10T21:17:50.695Z,117.20
2023-04-10T21:20:18.177Z,117.70
2023-04-10T21:22:45.663Z,117.20
2023-04-10T21:25:13.135Z,116.80
2023-04-10T21:27:40.665Z,117.00
2023-04-10T21:30:08.793Z,116.47
2023-04-10T21:32:35.837Z,116.67
2023-04-10T21:35:03.345Z,117.50
2023-04-10T21:37:30.903Z,116.67
2023-04-10T21:39:58.361Z,116.57
2023-04-10T21:42:25.784Z,117.97
2023-04-10T21:44:54.564Z,117.80
2023-04-10T21:47:21.636Z,116.97
2023-04-10T21:49:49.070Z,116.67
2023-04-10T21:52:16.640Z,115.93
2023-04-10T21:54:44.111Z,116.63
2023-04-10T21:57:11.543Z,117.70
2023-04-10T21:59:39.272Z,118.00
2023-04-10T22:02:07.075Z,116.97
2023-04-10T22:04:34.715Z,117.10
2023-04-10T22:07:05.490Z,116.97
2023-04-10T22:09:33.164Z,117.70
2023-04-10T22:12:00.728Z,117.20
2023-04-10T22:14:27.808Z,116.83
2023-04-10T22:16:56.524Z,117.07
2023-04-10T22:19:25.590Z,117.50
2023-04-10T22:21:53.019Z,115.97
2023-04-10T22:24:20.226Z,116.90
2023-04-10T22:26:47.331Z,117.80
2023-04-10T22:29:14.497Z,117.90
2023-04-10T22:31:43.865Z,117.60
2023-04-10T22:34:11.315Z,116.77
2023-04-10T22:36:38.363Z,117.90
2023-04-10T22:39:05.943Z,117.70
2023-04-10T22:41:33.531Z,116.60
2023-04-10T22:44:00.630Z,116.67
2023-04-10T22:46:28.097Z,118.07
2023-04-10T22:48:56.816Z,116.20
2023-04-10T22:51:24.501Z,117.57
2023-04-10T22:53:51.563Z,115.07
2023-04-10T22:56:19.624Z,116.27
2023-04-10T22:58:47.084Z,116.77
2023-04-10T23:01:14.665Z,117.10
2023-04-10T23:03:42.154Z,117.27
2023-04-10T23:06:09.799Z,117.80
2023-04-10T23:08:37.176Z,116.10
2023-04-10T23:11:04.714Z,117.20
2023-04-10T23:13:32.140Z,117.67
2023-04-10T23:15:59.661Z,117.47
2023-04-10T23:18:27.219Z,117.33
2023-04-10T23:20:54.660Z,118.07
2023-04-10T23:23:22.082Z,117.53
2023-04-10T23:26:01.075Z,117.33
2023-04-10T23:28:29.174Z,117.80
2023-04-10T23:30:56.236Z,117.77
2023-04-10T23:33:24.335Z,117.97
2023-04-10T23:35:51.815Z,116.17
2023-04-10T23:38:19.359Z,117.37
2023-04-10T23:40:47.571Z,116.97
2023-04-10T23:43:14.688Z,117.10
2023-04-10T23:45:42.126Z,117.70
2023-04-10T23:48:10.749Z,117.47
2023-04-10T23:50:38.054Z,117.50
2023-04-10T23:53:08.479Z,117.20
2023-04-10T23:55:36.547Z,116.97
2023-04-10T23:58:04.404Z,117.47
